Ferry Kyoto2 — JI3701 — position and weather

sailwx.info

Track history (hours):
 
Tides and Currents Weather Stations Pressure Air Temp Water Temp Dewpoint Dewpoint Depression Visibility Wind Speed Wind Dir Waves Ship Positions

Ferry Kyoto2

Last reported at 2015-Mar-30 12:26 UTC. Time now 2015-Mar-30 17:36 UTC.
Position N 34°35' E 134°51'.

Length 167 m; draft 6 m.

Type: Passenger vessel. MMSI: 431301641.

Date/timePositionNaut miles runAvg speedWind from/ knotsBaromVisibWave heightAir tempDewpointWater temp
2015-Mar-30 12:26N 34°35' E 134°51'1821.2
2015-Mar-30 11:33N 34°36' E 135°13'11 9.9
2015-Mar-30 10:29N 34°37' E 135°26'0 0.0
2015-Mar-30 09:23N 34°37' E 135°26'0 0.0
2015-Mar-30 08:29N 34°37' E 135°26'0 0.0
2015-Mar-30 07:29N 34°37' E 135°26'0 0.0
2015-Mar-30 06:29N 34°37' E 135°26'0 0.0
2015-Mar-30 05:29N 34°37' E 135°26'0 0.0
2015-Mar-30 04:23N 34°37' E 135°26'0 0.0
2015-Mar-30 03:29N 34°37' E 135°26'0 0.0
2015-Mar-30 02:29N 34°37' E 135°26'0 0.0
2015-Mar-30 01:29N 34°37' E 135°26'0 0.0
2015-Mar-30 00:29N 34°37' E 135°26'0 0.0
2015-Mar-29 23:29N 34°37' E 135°26'1111.5
2015-Mar-29 22:33N 34°35' E 135°13'1817.9
2015-Mar-29 21:33N 34°34' E 134°51'2 0.1
2015-Mar-28 12:33N 34°36' E 134°53'2020.0
2015-Mar-28 11:33N 34°37' E 135°17'7 6.5
2015-Mar-28 10:29N 34°37' E 135°26'0 0.0
2015-Mar-28 09:23N 34°37' E 135°26'0 0.0
2015-Mar-28 08:29N 34°37' E 135°26'0 0.0
2015-Mar-28 07:29N 34°37' E 135°26'0 0.0
2015-Mar-28 06:29N 34°37' E 135°26'0 0.0
2015-Mar-28 05:29N 34°37' E 135°26'0 0.0
2015-Mar-28 04:29N 34°37' E 135°26'0 0.0
2015-Mar-28 03:29N 34°37' E 135°26'0 0.0
2015-Mar-28 02:23N 34°37' E 135°26'0 0.0
2015-Mar-28 01:29N 34°37' E 135°26'0 0.0
2015-Mar-28 00:11N 34°37' E 135°26'0 0.0
2015-Mar-27 23:29N 34°37' E 135°26'1112.0
2015-Mar-27 22:33N 34°35' E 135°12'1818.5
2015-Mar-27 21:33N 34°33' E 134°50'5 0.1
2015-Mar-26 12:33N 34°36' E 134°55'2020.5
2015-Mar-26 11:33N 34°37' E 135°20'5 4.4
2015-Mar-26 10:24N 34°37' E 135°26'0 0.0
2015-Mar-26 09:30N 34°37' E 135°26'0 0.0
2015-Mar-26 08:30N 34°37' E 135°26'0 0.0
2015-Mar-26 07:24N 34°37' E 135°26'0 0.0
2015-Mar-26 06:24N 34°37' E 135°26'0 0.0
2015-Mar-26 05:24N 34°37' E 135°26'0 0.0
2015-Mar-26 04:30N 34°37' E 135°26'0 0.0
2015-Mar-26 03:24N 34°37' E 135°26'0 0.0
2015-Mar-26 02:30N 34°37' E 135°26'0 0.0
2015-Mar-26 01:30N 34°37' E 135°26'0 0.0
2015-Mar-26 00:30N 34°37' E 135°26'0 0.0
2015-Mar-25 23:30N 34°37' E 135°26'1010.5
2015-Mar-25 22:33N 34°35' E 135°14'1919.4
2015-Mar-25 21:34N 34°34' E 134°51'1 0.0
2015-Mar-24 12:33N 34°34' E 134°49'2121.2
2015-Mar-24 11:33N 34°36' E 135°15'9 9.1
2015-Mar-24 10:31N 34°37' E 135°26'0 0.0
2015-Mar-24 09:31N 34°37' E 135°26'0 0.0
2015-Mar-24 08:31N 34°37' E 135°26'0 0.0
2015-Mar-24 07:25N 34°37' E 135°26'0 0.0
2015-Mar-24 06:25N 34°37' E 135°26'0 0.0
2015-Mar-24 05:31N 34°37' E 135°26'0 0.0
2015-Mar-24 04:13N 34°37' E 135°26'0 0.0
2015-Mar-24 03:31N 34°37' E 135°26'0 0.0
2015-Mar-24 02:31N 34°37' E 135°26'0 0.0
2015-Mar-24 01:31N 34°37' E 135°26'0 0.0
2015-Mar-24 00:25N 34°37' E 135°26'0 0.0
2015-Mar-23 23:29N 34°37' E 135°26'1112.3
2015-Mar-23 22:33N 34°35' E 135°12'1918.5
2015-Mar-23 21:33N 34°34' E 134°50'1 0.0
2015-Mar-22 12:30N 34°34' E 134°49'2021.5
2015-Mar-22 11:33N 34°36' E 135°13'11 9.8
2015-Mar-22 10:28N 34°37' E 135°26'0 0.0
2015-Mar-22 09:28N 34°37' E 135°26'0 0.0
2015-Mar-22 08:28N 34°37' E 135°26'0 0.0
2015-Mar-22 07:04N 34°37' E 135°26'0 0.0
2015-Mar-22 06:28N 34°37' E 135°26'0 0.0
2015-Mar-22 05:22N 34°37' E 135°26'0 0.0
2015-Mar-22 04:28N 34°37' E 135°26'0 0.0
2015-Mar-22 03:28N 34°37' E 135°26'0 0.0
2015-Mar-22 02:28N 34°37' E 135°26'0 0.0
2015-Mar-22 01:28N 34°37' E 135°26'0 0.0
2015-Mar-22 00:16N 34°37' E 135°26'0 0.0
2015-Mar-21 23:28N 34°37' E 135°26'1010.8
2015-Mar-21 22:33N 34°35' E 135°14'1818.3
2015-Mar-21 21:33N 34°34' E 134°52'4 0.1
2015-Mar-20 12:33N 34°34' E 134°48'  
Track history (hours):
 
Tides and Currents Weather Stations Pressure Air Temp Water Temp Dewpoint Dewpoint Depression Visibility Wind Speed Wind Dir Waves Ship Positions

Ferry Kyoto2

Last reported at 2015-Mar-30 12:26 UTC. Time now 2015-Mar-30 17:36 UTC.
Position N 34°35' E 134°51'.

Length 167 m; draft 6 m.

Type: Passenger vessel. MMSI: 431301641.

Date/timePositionNaut miles runAvg speedWind from/ knotsBaromVisibWave heightAir tempDewpointWater temp
2015-Mar-30 12:26N 34°35' E 134°51'1821.2
2015-Mar-30 11:33N 34°36' E 135°13'11 9.9
2015-Mar-30 10:29N 34°37' E 135°26'0 0.0
2015-Mar-30 09:23N 34°37' E 135°26'0 0.0
2015-Mar-30 08:29N 34°37' E 135°26'0 0.0
2015-Mar-30 07:29N 34°37' E 135°26'0 0.0
2015-Mar-30 06:29N 34°37' E 135°26'0 0.0
2015-Mar-30 05:29N 34°37' E 135°26'0 0.0
2015-Mar-30 04:23N 34°37' E 135°26'0 0.0
2015-Mar-30 03:29N 34°37' E 135°26'0 0.0
2015-Mar-30 02:29N 34°37' E 135°26'0 0.0
2015-Mar-30 01:29N 34°37' E 135°26'0 0.0
2015-Mar-30 00:29N 34°37' E 135°26'0 0.0
2015-Mar-29 23:29N 34°37' E 135°26'1111.5
2015-Mar-29 22:33N 34°35' E 135°13'1817.9
2015-Mar-29 21:33N 34°34' E 134°51'2 0.1
2015-Mar-28 12:33N 34°36' E 134°53'2020.0
2015-Mar-28 11:33N 34°37' E 135°17'7 6.5
2015-Mar-28 10:29N 34°37' E 135°26'0 0.0
2015-Mar-28 09:23N 34°37' E 135°26'0 0.0
2015-Mar-28 08:29N 34°37' E 135°26'0 0.0
2015-Mar-28 07:29N 34°37' E 135°26'0 0.0
2015-Mar-28 06:29N 34°37' E 135°26'0 0.0
2015-Mar-28 05:29N 34°37' E 135°26'0 0.0
2015-Mar-28 04:29N 34°37' E 135°26'0 0.0
2015-Mar-28 03:29N 34°37' E 135°26'0 0.0
2015-Mar-28 02:23N 34°37' E 135°26'0 0.0
2015-Mar-28 01:29N 34°37' E 135°26'0 0.0
2015-Mar-28 00:11N 34°37' E 135°26'0 0.0
2015-Mar-27 23:29N 34°37' E 135°26'1112.0
2015-Mar-27 22:33N 34°35' E 135°12'1818.5
2015-Mar-27 21:33N 34°33' E 134°50'5 0.1
2015-Mar-26 12:33N 34°36' E 134°55'2020.5
2015-Mar-26 11:33N 34°37' E 135°20'5 4.4
2015-Mar-26 10:24N 34°37' E 135°26'0 0.0
2015-Mar-26 09:30N 34°37' E 135°26'0 0.0
2015-Mar-26 08:30N 34°37' E 135°26'0 0.0
2015-Mar-26 07:24N 34°37' E 135°26'0 0.0
2015-Mar-26 06:24N 34°37' E 135°26'0 0.0
2015-Mar-26 05:24N 34°37' E 135°26'0 0.0
2015-Mar-26 04:30N 34°37' E 135°26'0 0.0
2015-Mar-26 03:24N 34°37' E 135°26'0 0.0
2015-Mar-26 02:30N 34°37' E 135°26'0 0.0
2015-Mar-26 01:30N 34°37' E 135°26'0 0.0
2015-Mar-26 00:30N 34°37' E 135°26'0 0.0
2015-Mar-25 23:30N 34°37' E 135°26'1010.5
2015-Mar-25 22:33N 34°35' E 135°14'1919.4
2015-Mar-25 21:34N 34°34' E 134°51'1 0.0
2015-Mar-24 12:33N 34°34' E 134°49'2121.2
2015-Mar-24 11:33N 34°36' E 135°15'9 9.1
2015-Mar-24 10:31N 34°37' E 135°26'0 0.0
2015-Mar-24 09:31N 34°37' E 135°26'0 0.0
2015-Mar-24 08:31N 34°37' E 135°26'0 0.0
2015-Mar-24 07:25N 34°37' E 135°26'0 0.0
2015-Mar-24 06:25N 34°37' E 135°26'0 0.0
2015-Mar-24 05:31N 34°37' E 135°26'0 0.0
2015-Mar-24 04:13N 34°37' E 135°26'0 0.0
2015-Mar-24 03:31N 34°37' E 135°26'0 0.0
2015-Mar-24 02:31N 34°37' E 135°26'0 0.0
2015-Mar-24 01:31N 34°37' E 135°26'0 0.0
2015-Mar-24 00:25N 34°37' E 135°26'0 0.0
2015-Mar-23 23:29N 34°37' E 135°26'1112.3
2015-Mar-23 22:33N 34°35' E 135°12'1918.5
2015-Mar-23 21:33N 34°34' E 134°50'1 0.0
2015-Mar-22 12:30N 34°34' E 134°49'2021.5
2015-Mar-22 11:33N 34°36' E 135°13'11 9.8
2015-Mar-22 10:28N 34°37' E 135°26'0 0.0
2015-Mar-22 09:28N 34°37' E 135°26'0 0.0
2015-Mar-22 08:28N 34°37' E 135°26'0 0.0
2015-Mar-22 07:04N 34°37' E 135°26'0 0.0
2015-Mar-22 06:28N 34°37' E 135°26'0 0.0
2015-Mar-22 05:22N 34°37' E 135°26'0 0.0
2015-Mar-22 04:28N 34°37' E 135°26'0 0.0
2015-Mar-22 03:28N 34°37' E 135°26'0 0.0
2015-Mar-22 02:28N 34°37' E 135°26'0 0.0
2015-Mar-22 01:28N 34°37' E 135°26'0 0.0
2015-Mar-22 00:16N 34°37' E 135°26'0 0.0
2015-Mar-21 23:28N 34°37' E 135°26'1010.8
2015-Mar-21 22:33N 34°35' E 135°14'1818.3
2015-Mar-21 21:33N 34°34' E 134°52'4 0.1
2015-Mar-20 12:33N 34°34' E 134°48'  

Dump ship's entire track history